Wetterdaten: aktuell Mittwoch, 02.09.2026 12:00
Datum Zeit Arbeit-Z. Temp. A. Bod.+5cm Temp. A. min Temp. A. max Bl.Temp +1m BTemp -5cm BTemp -10cm BTemp -20cm BTemp -50cm Feuchte I. Feuchte A. BlattFeu +1m BFeucht -5cm BFeucht-10cm BFeucht-20cm BFeucht-50cm Luftdruck Regen Wind Richtung Richtung Sonnenschein ET UV Solar Taupunkt Windchill Windböen Empfang
02.09.2026 12:00 24,5 °C 23,7 °C 22,2 °C 23,7 °C 23,8 °C 19,4 °C 19,4 °C 19,4 °C 19,4 °C 20,6 °C 49 % 65 % 0 lf 200 cb 200 cb 200 cb 121 cb 1018,7 hPa 0,0 l/m² 6,0 km/h (2 Bft) W-NW 284 ° 60 min 0,330 mm 3,4 UV-I 671 W/m² 16,7 °C 23,7 °C 14,5 km/h (3 Bft) 94,92 %
02.09.2026 11:00 24,3 °C 22,1 °C 20,0 °C 21,4 °C 22,1 °C 18,3 °C 18,3 °C 18,9 °C 20,0 °C 20,6 °C 49 % 72 % 0 lf 200 cb 200 cb 200 cb 120 cb 1018,7 hPa 0,0 l/m² 3,9 km/h (1 Bft) N-NW 339 ° 60 min 0,279 mm 2,5 UV-I 575 W/m² 16,8 °C 22,1 °C 8,0 km/h (2 Bft) 96,40 %
02.09.2026 10:00 24,2 °C 19,6 °C 18,3 °C 18,6 °C 19,6 °C 17,8 °C 17,8 °C 19,4 °C 20,0 °C 20,6 °C 47 % 72 % 0 lf 200 cb 200 cb 200 cb 120 cb 1018,7 hPa 0,0 l/m² 4,1 km/h (1 Bft) NW 310 ° 30 min 0,127 mm 1,5 UV-I 452 W/m² 14,4 °C 19,6 °C 6,4 km/h (2 Bft) 95,93 %
02.09.2026 09:00 24,4 °C 17,2 °C 16,7 °C 17,2 °C 17,2 °C 17,8 °C 17,8 °C 19,4 °C 20,0 °C 20,6 °C 46 % 78 % 0 lf 200 cb 200 cb 200 cb 120 cb 1018,1 hPa 0,0 l/m² 1,0 km/h (0 Bft) N-NW 327 ° 5 min 0,051 mm 0,6 UV-I 163 W/m² 13,3 °C 17,2 °C 3,2 km/h (1 Bft) 98,17 %
02.09.2026 08:00 24,7 °C 16,2 °C 15,0 °C 16,2 °C 16,3 °C 17,8 °C 17,8 °C 19,4 °C 20,0 °C 20,6 °C 46 % 77 % 0 lf 200 cb 200 cb 200 cb 119 cb 1018,2 hPa 0,0 l/m² 0,7 km/h (0 Bft) SW 220 ° 0 min 0,026 mm 0,0 UV-I 58 W/m² 12,2 °C 16,2 °C 3,2 km/h (1 Bft) 96,58 %
02.09.2026 07:00 24,8 °C 15,3 °C 13,9 °C 15,3 °C 15,3 °C 17,8 °C 17,8 °C 19,4 °C 20,0 °C 20,6 °C 47 % 80 % 0 lf 200 cb 200 cb 200 cb 119 cb 1018,0 hPa 0,0 l/m² 0,1 km/h (0 Bft) O-SO 115 ° 0 min 0,025 mm 0,0 UV-I 12 W/m² 11,9 °C 15,3 °C 1,6 km/h (1 Bft) 94,55 %
02.09.2026 06:00 24,8 °C 15,9 °C 14,4 °C 15,7 °C 15,9 °C 17,8 °C 17,8 °C 20,0 °C 20,0 °C 20,6 °C 46 % 78 % 0 lf 200 cb 200 cb 200 cb 119 cb 1017,9 hPa 0,0 l/m² 2,5 km/h (1 Bft) SO 132 ° 0 min 0,025 mm 0,0 UV-I 0 W/m² 12,1 °C 15,9 °C 6,4 km/h (2 Bft) 97,50 %
02.09.2026 05:00 24,9 °C 16,3 °C 15,0 °C 16,3 °C 16,3 °C 18,3 °C 18,3 °C 20,0 °C 20,0 °C 20,6 °C 46 % 77 % 0 lf 200 cb 200 cb 200 cb 119 cb 1017,9 hPa 0,0 l/m² 3,0 km/h (1 Bft) O 101 ° 0 min 0,025 mm 0,0 UV-I 0 W/m² 12,3 °C 16,3 °C 11,3 km/h (2 Bft) 94,87 %
02.09.2026 04:00 24,9 °C 16,7 °C 15,0 °C 16,6 °C 16,7 °C 18,3 °C 18,3 °C 20,0 °C 20,0 °C 20,6 °C 47 % 76 % 0 lf 200 cb 200 cb 200 cb 118 cb 1017,8 hPa 0,0 l/m² 1,8 km/h (1 Bft) O 84 ° 0 min 0,026 mm 0,0 UV-I 0 W/m² 12,4 °C 16,7 °C 6,4 km/h (2 Bft) 97,44 %
02.09.2026 03:00 25,0 °C 16,9 °C 15,6 °C 16,8 °C 16,9 °C 18,3 °C 18,3 °C 20,0 °C 20,6 °C 20,6 °C 47 % 76 % 0 lf 200 cb 200 cb 200 cb 117 cb 1017,9 hPa 0,0 l/m² 4,5 km/h (1 Bft) S 180 ° 0 min 0,025 mm 0,0 UV-I 0 W/m² 12,6 °C 16,9 °C 14,5 km/h (3 Bft) 94,92 %
02.09.2026 02:00 25,1 °C 17,1 °C 15,6 °C 17,1 °C 17,2 °C 18,9 °C 18,9 °C 20,6 °C 20,6 °C 20,6 °C 47 % 76 % 0 lf 200 cb 200 cb 200 cb 117 cb 1018,3 hPa 0,0 l/m² 3,6 km/h (1 Bft) O-SO 108 ° 0 min 0,025 mm 0,0 UV-I 0 W/m² 12,8 °C 17,1 °C 14,5 km/h (3 Bft) 97,46 %
02.09.2026 01:00 25,1 °C 17,7 °C 16,1 °C 17,7 °C 17,8 °C 19,4 °C 19,4 °C 20,6 °C 20,6 °C 20,6 °C 48 % 74 % 0 lf 200 cb 200 cb 200 cb 117 cb 1018,5 hPa 0,0 l/m² 2,0 km/h (1 Bft) S-SW 193 ° 0 min 0,025 mm 0,0 UV-I 0 W/m² 13,0 °C 17,7 °C 9,7 km/h (2 Bft) 96,61 %
02.09.2026 00:00 25,1 °C 18,5 °C 16,7 °C 18,4 °C 18,5 °C 19,4 °C 19,4 °C 20,6 °C 20,6 °C 20,6 °C 48 % 72 % 0 lf 200 cb 200 cb 200 cb 117 cb 1018,6 hPa 0,0 l/m² 3,5 km/h (1 Bft) N-NW 346 ° 0 min 0,026 mm 0,0 UV-I 0 W/m² 13,4 °C 18,5 °C 11,3 km/h (2 Bft) 94,87 %
01.09.2026 23:00 25,1 °C 18,8 °C 17,2 °C 18,4 °C 18,8 °C 20,0 °C 20,0 °C 20,6 °C 20,6 °C 20,6 °C 49 % 72 % 0 lf 200 cb 200 cb 200 cb 116 cb 1018,5 hPa 0,0 l/m² 2,8 km/h (1 Bft) S-SO 161 ° 0 min 0,025 mm 0,0 UV-I 0 W/m² 13,6 °C 18,8 °C 12,9 km/h (3 Bft) 96,58 %
01.09.2026 22:00 25,1 °C 18,8 °C 16,7 °C 18,8 °C 19,0 °C 20,0 °C 20,0 °C 21,1 °C 20,6 °C 20,6 °C 48 % 74 % 0 lf 200 cb 200 cb 200 cb 116 cb 1018,4 hPa 0,0 l/m² 0,1 km/h (0 Bft) O-NO 63 ° 0 min 0,000 mm 0,0 UV-I 0 W/m² 14,1 °C 18,8 °C 1,6 km/h (1 Bft) 95,73 %
01.09.2026 21:00 25,3 °C 19,6 °C 17,8 °C 19,4 °C 19,6 °C 20,6 °C 20,6 °C 21,1 °C 20,6 °C 20,6 °C 49 % 76 % 0 lf 200 cb 200 cb 200 cb 116 cb 1018,2 hPa 0,0 l/m² 0,6 km/h (0 Bft) S-SO 164 ° 0 min 0,001 mm 0,0 UV-I 0 W/m² 15,2 °C 19,6 °C 6,4 km/h (2 Bft) 99,15 %
01.09.2026 20:00 25,4 °C 21,7 °C 19,4 °C 21,7 °C 22,1 °C 20,6 °C 20,6 °C 21,1 °C 20,6 °C 20,6 °C 47 % 68 % 0 lf 200 cb 200 cb 200 cb 116 cb 1017,7 hPa 0,0 l/m² 0,4 km/h (0 Bft) SW 216 ° 0 min 0,076 mm 0,0 UV-I 9 W/m² 15,5 °C 21,7 °C 3,2 km/h (1 Bft) 93,50 %
01.09.2026 19:00 25,4 °C 24,2 °C 23,3 °C 24,2 °C 24,3 °C 21,1 °C 21,1 °C 21,1 °C 20,0 °C 20,6 °C 45 % 56 % 0 lf 200 cb 200 cb 200 cb 115 cb 1017,5 hPa 0,0 l/m² 0,2 km/h (0 Bft) W-NW 300 ° 0 min 0,127 mm 0,0 UV-I 49 W/m² 14,9 °C 24,2 °C 1,6 km/h (1 Bft) 93,22 %
01.09.2026 18:00 25,4 °C 24,7 °C 23,9 °C 24,6 °C 24,8 °C 21,1 °C 21,1 °C 20,6 °C 20,0 °C 20,6 °C 45 % 55 % 0 lf 200 cb 200 cb 200 cb 115 cb 1017,7 hPa 0,0 l/m² 1,3 km/h (1 Bft) NW 323 ° 15 min 0,127 mm 0,5 UV-I 88 W/m² 15,0 °C 24,7 °C 4,8 km/h (1 Bft) 96,30 %
01.09.2026 17:00 25,2 °C 25,8 °C 26,7 °C 25,5 °C 25,8 °C 21,7 °C 21,7 °C 20,6 °C 20,0 °C 20,6 °C 45 % 55 % 0 lf 200 cb 200 cb 200 cb 114 cb 1017,8 hPa 0,0 l/m² 2,8 km/h (1 Bft) N-NW 342 ° 60 min 0,228 mm 1,5 UV-I 471 W/m² 16,1 °C 25,8 °C 6,4 km/h (2 Bft) 96,90 %
01.09.2026 16:00 24,9 °C 24,7 °C 23,3 °C 24,7 °C 24,8 °C 21,7 °C 21,7 °C 20,6 °C 20,0 °C 20,6 °C 45 % 52 % 0 lf 200 cb 200 cb 200 cb 114 cb 1018,1 hPa 0,0 l/m² 2,7 km/h (1 Bft) S-SW 212 ° 60 min 0,254 mm 1,3 UV-I 176 W/m² 14,2 °C 24,7 °C 9,7 km/h (2 Bft) 95,83 %
01.09.2026 15:00 24,8 °C 25,2 °C 24,4 °C 25,2 °C 25,7 °C 21,7 °C 21,7 °C 20,0 °C 20,0 °C 20,6 °C 45 % 50 % 0 lf 200 cb 200 cb 200 cb 114 cb 1018,5 hPa 0,0 l/m² 3,8 km/h (1 Bft) S-SW 209 ° 60 min 0,331 mm 2,2 UV-I 230 W/m² 14,0 °C 25,2 °C 11,3 km/h (2 Bft) 94,69 %
01.09.2026 14:00 24,7 °C 25,8 °C 23,9 °C 25,0 °C 25,9 °C 22,2 °C 22,2 °C 20,0 °C 19,4 °C 20,6 °C 46 % 57 % 0 lf 200 cb 200 cb 200 cb 113 cb 1018,8 hPa 0,0 l/m² 3,5 km/h (1 Bft) S-SW 195 ° 45 min 0,381 mm 2,4 UV-I 788 W/m² 16,6 °C 25,8 °C 6,4 km/h (2 Bft) 97,50 %
01.09.2026 13:00 24,6 °C 24,7 °C 23,3 °C 24,7 °C 25,1 °C 21,1 °C 21,1 °C 19,4 °C 19,4 °C 20,6 °C 47 % 57 % 0 lf 200 cb 200 cb 200 cb 113 cb 1019,1 hPa 0,0 l/m² 6,5 km/h (2 Bft) S-SW 209 ° 0 min 0,457 mm 4,3 UV-I 853 W/m² 15,6 °C 24,7 °C 16,1 km/h (3 Bft) 96,33 %
_ Min-Zeit 10:00 06:55 06:40 06:55 06:50 05:30 05:30 10:30 13:00 13:00 14:40 15:00 13:00 13:00 13:00 13:00 13:00 19:15 - 19:10 - - - - - - 06:45 06:45 19:10 13:20
Minimum _ 24,2 °C 15,2 °C 13,9 °C 15,2 °C 15,3 °C 17,8 °C 17,8 °C 18,9 °C 19,4 °C 20,6 °C 45 % 50 % 0 lf 200 cb 200 cb 200 cb 113 cb 1017,4 hPa - 0,0 km/h (0 Bft) - - - - - - 11,9 °C 15,3 °C 0,0 km/h (0 Bft) 88,14 %
_ Max-Zeit 18:20 14:00 17:40 17:00 14:00 13:55 13:55 18:10 19:45 13:00 11:05 05:55 13:00 13:00 13:00 13:00 11:55 13:00 13:00 13:05 - - 13:00 13:00 13:05 15:15 11:50 14:00 15:20 14:15
Maximum _ 25,5 °C 25,9 °C 28,9 °C 25,5 °C 25,9 °C 22,2 °C 22,2 °C 21,1 °C 20,6 °C 20,6 °C 50 % 80 % 0 lf 200 cb 200 cb 200 cb 121 cb 1019,1 hPa 0,0 l/m² 9,9 km/h
N-NW (2 Bft)
- - 5 min 0,457 mm 4,4 UV-I 886 W/m² 17,1 °C 25,8 °C 19,3 km/h
S (3 Bft)
100,00 %
Durchschnitt _ 24,9 °C 20,4 °C 19,1 °C 20,3 °C 20,5 °C 19,7 °C 19,7 °C 20,1 °C 20,1 °C 20,6 °C 47 % 68 % 0 lf 200 cb 200 cb 200 cb 116 cb 1018,3 hPa #0,0 l/m² 2,7 km/h (1 Bft) N-NW - #2:35 h #0,965 mm 1,8 UV-I 258 W/m² 14,0 °C 20,4 °C 8,3 km/h (2 Bft) 95,69 %
copy; 2009 Dieter Kraft